createdAt,value
2023-05-14T00:00:29.849Z,11.30
2023-05-14T00:02:56.824Z,11.30
2023-05-14T00:05:23.906Z,11.20
2023-05-14T00:07:50.728Z,11.20
2023-05-14T00:10:17.648Z,11.20
2023-05-14T00:12:44.579Z,11.10
2023-05-14T00:15:11.508Z,11.10
2023-05-14T00:17:38.454Z,11.00
2023-05-14T00:20:06.383Z,11.00
2023-05-14T00:22:34.017Z,10.90
2023-05-14T00:25:00.902Z,10.90
2023-05-14T00:27:27.746Z,10.80
2023-05-14T00:29:54.609Z,10.80
2023-05-14T00:32:21.491Z,10.70
2023-05-14T00:34:48.380Z,10.70
2023-05-14T00:37:15.233Z,10.70
2023-05-14T00:39:42.130Z,10.60
2023-05-14T00:42:08.984Z,10.60
2023-05-14T00:44:36.126Z,10.60
2023-05-14T00:47:03.571Z,10.50
2023-05-14T00:49:30.568Z,10.50
2023-05-14T00:51:58.076Z,10.50
2023-05-14T00:54:25.230Z,10.50
2023-05-14T00:56:52.211Z,10.50
2023-05-14T00:59:19.077Z,10.40
2023-05-14T01:01:46.001Z,10.30
2023-05-14T01:04:13.156Z,10.30
2023-05-14T01:06:39.964Z,10.20
2023-05-14T01:09:28.972Z,10.10
2023-05-14T01:12:14.495Z,10.10
2023-05-14T01:14:54.443Z,10.00
2023-05-14T01:17:23.005Z,10.00
2023-05-14T01:19:51.164Z,9.90
2023-05-14T01:22:18.071Z,9.90
2023-05-14T01:24:45.001Z,9.90
2023-05-14T01:27:17.654Z,9.80
2023-05-14T01:29:52.372Z,9.80
2023-05-14T01:32:23.036Z,9.70
2023-05-14T01:34:51.037Z,9.70
2023-05-14T01:37:18.673Z,9.70
2023-05-14T01:39:46.103Z,9.70
2023-05-14T01:42:13.377Z,9.60
2023-05-14T01:44:40.426Z,9.60
2023-05-14T01:47:07.284Z,9.50
2023-05-14T01:49:34.109Z,9.50
2023-05-14T01:52:01.002Z,9.50
2023-05-14T01:54:27.822Z,9.50
2023-05-14T01:56:54.708Z,9.50
2023-05-14T01:59:21.604Z,9.40
2023-05-14T02:01:48.541Z,9.50
2023-05-14T02:04:15.647Z,9.50
2023-05-14T02:06:42.691Z,9.50
2023-05-14T02:09:09.538Z,9.50
2023-05-14T02:11:36.429Z,9.40
2023-05-14T02:14:03.338Z,9.40
2023-05-14T02:16:30.247Z,9.30
2023-05-14T02:18:57.129Z,9.30
2023-05-14T02:21:24.736Z,9.20
2023-05-14T02:23:51.618Z,9.30
2023-05-14T02:26:18.486Z,9.40
2023-05-14T02:28:45.361Z,9.30
2023-05-14T02:31:12.269Z,9.20
2023-05-14T02:33:39.249Z,9.10
2023-05-14T02:36:06.347Z,9.10
2023-05-14T02:38:33.195Z,9.10
2023-05-14T02:41:00.068Z,9.10
2023-05-14T02:43:26.924Z,9.10
2023-05-14T02:45:53.841Z,9.00
2023-05-14T02:48:20.717Z,9.00
2023-05-14T02:50:48.401Z,9.00
2023-05-14T02:53:15.273Z,9.00
2023-05-14T02:55:42.088Z,9.00
2023-05-14T02:58:08.980Z,9.00
2023-05-14T03:00:35.892Z,8.90
2023-05-14T03:03:03.107Z,8.90
2023-05-14T03:05:30.134Z,8.90
2023-05-14T03:07:56.986Z,9.00
2023-05-14T03:10:24.154Z,8.90
2023-05-14T03:12:51.671Z,8.90
2023-05-14T03:15:18.696Z,8.80
2023-05-14T03:17:45.597Z,8.80
2023-05-14T03:20:13.272Z,8.80
2023-05-14T03:22:40.491Z,8.80
2023-05-14T03:25:07.543Z,8.80
2023-05-14T03:27:34.444Z,8.80
2023-05-14T03:30:01.314Z,8.90
2023-05-14T03:32:28.289Z,9.00
2023-05-14T03:34:55.235Z,9.10
2023-05-14T03:37:22.268Z,9.00
2023-05-14T03:39:49.110Z,9.10
2023-05-14T03:42:15.980Z,9.20
2023-05-14T03:44:42.817Z,9.30
2023-05-14T03:47:09.663Z,9.10
2023-05-14T03:49:36.543Z,9.10
2023-05-14T03:52:03.567Z,9.10
2023-05-14T03:54:30.445Z,9.10
2023-05-14T03:56:57.326Z,9.10
2023-05-14T03:59:24.209Z,9.10
2023-05-14T04:01:51.176Z,9.10
2023-05-14T04:04:18.081Z,9.20
2023-05-14T04:06:44.964Z,9.20
2023-05-14T04:09:11.894Z,9.20
2023-05-14T04:11:38.766Z,9.20
2023-05-14T04:14:05.708Z,9.20
2023-05-14T04:16:32.559Z,9.30
2023-05-14T04:19:02.589Z,9.30
2023-05-14T04:21:29.474Z,9.30
2023-05-14T04:23:56.379Z,9.30
2023-05-14T04:26:23.343Z,9.30
2023-05-14T04:28:50.185Z,9.30
2023-05-14T04:31:17.086Z,9.40
2023-05-14T04:33:43.945Z,9.50
2023-05-14T04:36:10.820Z,9.60
2023-05-14T04:38:37.653Z,9.60
2023-05-14T04:41:04.673Z,9.60
2023-05-14T04:43:31.531Z,9.60
2023-05-14T04:45:58.461Z,9.60
2023-05-14T04:48:25.405Z,9.70
2023-05-14T04:50:52.305Z,9.80
2023-05-14T04:53:19.259Z,9.90
2023-05-14T04:55:46.062Z,9.90
2023-05-14T04:58:12.921Z,10.00
2023-05-14T05:00:39.889Z,10.00
2023-05-14T05:03:06.838Z,10.10
2023-05-14T05:05:33.744Z,10.20
2023-05-14T05:08:00.599Z,10.20
2023-05-14T05:10:27.537Z,10.20
2023-05-14T05:12:54.381Z,10.20
2023-05-14T05:15:21.205Z,10.20
2023-05-14T05:17:48.489Z,10.20
2023-05-14T05:20:15.528Z,10.30
2023-05-14T05:22:42.398Z,10.30
2023-05-14T05:25:09.494Z,10.30
2023-05-14T05:27:36.342Z,10.30
2023-05-14T05:30:03.285Z,10.40
2023-05-14T05:32:30.569Z,10.50
2023-05-14T05:34:57.501Z,10.60
2023-05-14T05:37:24.408Z,10.70
2023-05-14T05:39:51.259Z,10.80
2023-05-14T05:42:18.086Z,10.90
2023-05-14T05:44:45.082Z,11.00
2023-05-14T05:47:11.925Z,11.10
2023-05-14T05:49:38.791Z,11.40
2023-05-14T05:52:05.837Z,11.50
2023-05-14T05:54:32.685Z,11.60
2023-05-14T05:56:59.892Z,11.80
2023-05-14T05:59:26.818Z,11.90
2023-05-14T06:01:53.790Z,12.00
2023-05-14T06:04:20.675Z,12.20
2023-05-14T06:06:47.504Z,12.30
2023-05-14T06:09:14.445Z,12.40
2023-05-14T06:11:41.310Z,12.60
2023-05-14T06:14:08.192Z,12.70
2023-05-14T06:16:35.136Z,12.80
2023-05-14T06:19:02.092Z,12.90
2023-05-14T06:21:28.972Z,12.90
2023-05-14T06:23:55.822Z,13.00
2023-05-14T06:26:22.649Z,13.10
2023-05-14T06:28:49.505Z,13.20
2023-05-14T06:31:16.410Z,13.30
2023-05-14T06:33:43.250Z,13.50
2023-05-14T06:36:10.385Z,13.70
2023-05-14T06:38:37.372Z,13.80
2023-05-14T06:41:04.345Z,14.00
2023-05-14T06:43:31.194Z,14.20
2023-05-14T06:45:58.092Z,14.30
2023-05-14T06:48:25.017Z,14.40
2023-05-14T06:50:51.904Z,14.60
2023-05-14T06:53:18.765Z,14.80
2023-05-14T06:55:47.889Z,15.00
2023-05-14T06:58:14.801Z,15.20
2023-05-14T07:00:41.724Z,15.30
2023-05-14T07:03:08.645Z,15.40
2023-05-14T07:05:35.520Z,15.50
2023-05-14T07:08:02.499Z,15.70
2023-05-14T07:10:29.388Z,15.80
2023-05-14T07:12:56.277Z,15.90
2023-05-14T07:15:23.121Z,15.90
2023-05-14T07:17:50.006Z,16.10
2023-05-14T07:20:16.947Z,16.40
2023-05-14T07:22:43.833Z,16.50
2023-05-14T07:25:11.084Z,16.70
2023-05-14T07:27:37.941Z,16.80
2023-05-14T07:30:05.218Z,17.00
2023-05-14T07:32:32.108Z,17.10
2023-05-14T07:34:59.254Z,17.40
2023-05-14T07:37:26.291Z,17.70
2023-05-14T07:39:53.885Z,17.80
2023-05-14T07:42:32.228Z,18.00
2023-05-14T07:45:02.650Z,18.00
2023-05-14T07:47:30.229Z,18.00
2023-05-14T07:49:58.062Z,18.00
2023-05-14T07:52:25.324Z,18.00
2023-05-14T07:54:52.353Z,18.00
2023-05-14T07:57:20.051Z,18.20
2023-05-14T07:59:48.204Z,18.30
2023-05-14T08:02:15.280Z,18.50
2023-05-14T08:04:42.191Z,18.40
2023-05-14T08:07:09.140Z,18.60
2023-05-14T08:09:36.098Z,18.60
2023-05-14T08:12:03.184Z,18.90
2023-05-14T08:14:30.088Z,19.10
2023-05-14T08:16:56.987Z,19.00
2023-05-14T08:19:23.874Z,19.10
2023-05-14T08:21:50.910Z,19.10
2023-05-14T08:24:18.829Z,19.20
2023-05-14T08:26:45.713Z,19.40
2023-05-14T08:29:14.671Z,19.50
2023-05-14T08:31:43.060Z,19.60
2023-05-14T08:34:09.972Z,19.90
2023-05-14T08:36:36.933Z,19.80
2023-05-14T08:39:03.883Z,19.90
2023-05-14T08:41:31.110Z,19.80
2023-05-14T08:44:18.398Z,20.20
2023-05-14T08:46:45.816Z,20.20
2023-05-14T08:49:33.943Z,20.70
2023-05-14T08:52:01.331Z,21.00
2023-05-14T08:54:28.296Z,21.40
2023-05-14T08:56:55.705Z,21.20
2023-05-14T08:59:22.580Z,21.30
2023-05-14T09:01:53.181Z,21.50
2023-05-14T09:04:22.114Z,22.10
2023-05-14T09:06:53.422Z,24.10
2023-05-14T09:09:20.919Z,25.20
2023-05-14T09:11:51.749Z,25.90
2023-05-14T09:14:19.377Z,26.50
2023-05-14T09:16:48.451Z,26.90
2023-05-14T09:19:16.670Z,27.50
2023-05-14T09:21:45.767Z,27.50
2023-05-14T09:24:22.459Z,27.90
2023-05-14T09:26:57.983Z,27.40
2023-05-14T09:29:29.539Z,27.40
2023-05-14T09:31:57.548Z,27.20
2023-05-14T09:34:28.100Z,27.50
2023-05-14T09:36:57.196Z,27.40
2023-05-14T09:39:25.721Z,26.70
2023-05-14T09:41:53.413Z,26.30
2023-05-14T09:44:21.029Z,25.90
2023-05-14T09:46:48.879Z,25.60
2023-05-14T09:49:16.038Z,25.40
2023-05-14T09:51:43.146Z,24.50
2023-05-14T09:54:10.449Z,24.40
2023-05-14T09:56:37.722Z,24.50
2023-05-14T09:59:04.955Z,24.20
2023-05-14T10:01:32.677Z,24.90
2023-05-14T10:04:00.361Z,24.70
2023-05-14T10:06:30.713Z,25.50
2023-05-14T10:09:03.804Z,25.50
2023-05-14T10:11:36.103Z,25.20
2023-05-14T10:14:11.577Z,24.40
2023-05-14T10:16:43.760Z,24.70
2023-05-14T10:19:12.310Z,24.80
2023-05-14T10:21:44.730Z,25.10
2023-05-14T10:24:12.273Z,24.70
2023-05-14T10:26:41.608Z,25.10
2023-05-14T10:29:10.563Z,25.70
2023-05-14T10:31:55.720Z,26.00
2023-05-14T10:34:31.527Z,25.40
2023-05-14T10:37:02.681Z,25.00
2023-05-14T10:39:58.196Z,24.80
2023-05-14T10:42:37.539Z,25.00
2023-05-14T10:45:06.615Z,25.00
2023-05-14T10:47:35.473Z,24.80
2023-05-14T10:50:11.180Z,24.40
2023-05-14T10:52:38.153Z,24.00
2023-05-14T10:55:06.963Z,23.40
2023-05-14T10:57:38.014Z,22.70
2023-05-14T11:00:06.740Z,22.60
2023-05-14T11:02:38.746Z,22.20
2023-05-14T11:05:07.059Z,22.10
2023-05-14T11:07:37.669Z,22.00
2023-05-14T11:10:08.736Z,21.80
2023-05-14T11:12:37.705Z,21.70
2023-05-14T11:15:09.267Z,21.60
2023-05-14T11:17:37.307Z,21.50
2023-05-14T11:20:04.967Z,21.10
2023-05-14T11:22:31.868Z,21.00
2023-05-14T11:24:58.726Z,20.90
2023-05-14T11:27:25.859Z,20.80
2023-05-14T11:29:53.401Z,20.90
2023-05-14T11:32:20.605Z,20.80
2023-05-14T11:34:47.899Z,20.70
2023-05-14T11:37:16.635Z,20.80
2023-05-14T11:39:48.917Z,20.80
2023-05-14T11:42:16.471Z,20.80
2023-05-14T11:44:43.489Z,20.80
2023-05-14T11:47:11.316Z,20.80
2023-05-14T11:49:38.300Z,20.90
2023-05-14T11:52:06.741Z,20.90
2023-05-14T11:54:34.857Z,21.00
2023-05-14T11:57:21.884Z,21.20
2023-05-14T11:59:54.895Z,21.60
2023-05-14T12:02:22.125Z,21.60
2023-05-14T12:04:53.496Z,21.90
2023-05-14T12:07:20.551Z,22.00
2023-05-14T12:09:49.066Z,22.20
2023-05-14T12:12:20.042Z,22.10
2023-05-14T12:14:47.725Z,22.50
2023-05-14T12:17:22.267Z,23.10
2023-05-14T12:19:51.114Z,23.50
2023-05-14T12:22:21.181Z,24.00
2023-05-14T12:24:54.807Z,24.60
2023-05-14T12:27:25.627Z,23.90
2023-05-14T12:30:20.689Z,24.20
2023-05-14T12:32:48.562Z,24.40
2023-05-14T12:35:15.514Z,24.60
2023-05-14T12:37:42.393Z,24.30
2023-05-14T12:40:21.760Z,24.40
2023-05-14T12:42:48.726Z,24.20
2023-05-14T12:45:15.616Z,24.20
2023-05-14T12:47:42.626Z,24.10
2023-05-14T12:50:09.830Z,24.00
2023-05-14T12:52:39.189Z,23.90
2023-05-14T12:55:09.863Z,24.00
2023-05-14T12:57:38.089Z,24.10
2023-05-14T13:00:05.691Z,24.40
2023-05-14T13:02:32.593Z,24.60
2023-05-14T13:04:59.484Z,24.90
2023-05-14T13:07:26.400Z,25.00
2023-05-14T13:09:53.228Z,24.60
2023-05-14T13:12:20.073Z,24.40
2023-05-14T13:14:46.927Z,24.20
2023-05-14T13:17:13.778Z,24.10
2023-05-14T13:19:40.660Z,24.00
2023-05-14T13:22:07.579Z,23.80
2023-05-14T13:24:35.611Z,23.70
2023-05-14T13:27:02.536Z,23.80
2023-05-14T13:29:29.442Z,24.50
2023-05-14T13:31:56.305Z,24.40
2023-05-14T13:34:23.140Z,24.30
2023-05-14T13:36:50.067Z,24.10
2023-05-14T13:39:17.089Z,24.30
2023-05-14T13:41:43.907Z,24.40
2023-05-14T13:44:10.734Z,24.40
2023-05-14T13:46:37.797Z,24.10
2023-05-14T13:49:04.729Z,23.90
2023-05-14T13:51:31.605Z,24.00
2023-05-14T13:53:58.474Z,23.90
2023-05-14T13:56:25.357Z,23.60
2023-05-14T13:58:52.241Z,23.60
2023-05-14T14:01:19.108Z,24.10
2023-05-14T14:03:46.006Z,24.70
2023-05-14T14:06:12.878Z,25.50
2023-05-14T14:08:39.792Z,26.00
2023-05-14T14:11:06.705Z,26.30
2023-05-14T14:13:33.588Z,27.10
2023-05-14T14:16:00.510Z,27.50
2023-05-14T14:18:27.530Z,28.00
2023-05-14T14:20:54.429Z,28.50
2023-05-14T14:23:21.317Z,29.10
2023-05-14T14:25:48.285Z,29.20
2023-05-14T14:28:15.244Z,28.70
2023-05-14T14:30:42.580Z,28.20
2023-05-14T14:33:09.688Z,28.20
2023-05-14T14:35:36.600Z,27.90
2023-05-14T14:38:03.505Z,28.00
2023-05-14T14:40:30.407Z,27.80
2023-05-14T14:42:57.282Z,27.60
2023-05-14T14:45:24.440Z,28.10
2023-05-14T14:47:51.578Z,27.70
2023-05-14T14:50:18.462Z,27.10
2023-05-14T14:52:46.066Z,26.50
2023-05-14T14:55:13.315Z,26.70
2023-05-14T14:57:40.200Z,26.50
2023-05-14T15:00:07.688Z,26.90
2023-05-14T15:02:35.059Z,26.90
2023-05-14T15:05:02.336Z,26.80
2023-05-14T15:07:29.196Z,26.50
2023-05-14T15:09:56.045Z,27.30
2023-05-14T15:12:23.137Z,27.50
2023-05-14T15:14:50.007Z,27.80
2023-05-14T15:17:16.904Z,27.70
2023-05-14T15:19:43.772Z,27.10
2023-05-14T15:22:10.728Z,27.30
2023-05-14T15:24:37.572Z,26.90
2023-05-14T15:27:04.676Z,26.00
2023-05-14T15:29:31.773Z,25.30
2023-05-14T15:31:58.715Z,25.00
2023-05-14T15:34:25.742Z,24.90
2023-05-14T15:36:52.670Z,24.90
2023-05-14T15:39:23.107Z,24.80
2023-05-14T15:41:50.050Z,24.90
2023-05-14T15:44:16.915Z,24.80
2023-05-14T15:46:43.858Z,24.30
2023-05-14T15:49:10.821Z,23.90
2023-05-14T15:51:37.686Z,23.90
2023-05-14T15:54:04.635Z,23.80
2023-05-14T15:56:31.678Z,23.30
2023-05-14T15:58:58.642Z,23.10
2023-05-14T16:01:25.535Z,22.90
2023-05-14T16:03:53.080Z,22.70
2023-05-14T16:06:20.062Z,22.70
2023-05-14T16:08:46.900Z,23.00
2023-05-14T16:11:13.841Z,23.20
2023-05-14T16:13:40.754Z,23.40
2023-05-14T16:16:08.091Z,23.30
2023-05-14T16:18:35.028Z,23.30
2023-05-14T16:21:01.988Z,23.00
2023-05-14T16:23:28.903Z,22.90
2023-05-14T16:25:55.810Z,23.10
2023-05-14T16:28:22.721Z,23.80
2023-05-14T16:30:49.826Z,24.30
2023-05-14T16:33:16.735Z,24.80
2023-05-14T16:35:43.598Z,25.40
2023-05-14T16:38:10.517Z,26.00
2023-05-14T16:40:37.390Z,26.30
2023-05-14T16:43:04.284Z,26.80
2023-05-14T16:45:31.068Z,26.50
2023-05-14T16:47:57.984Z,26.10
2023-05-14T16:50:24.875Z,25.10
2023-05-14T16:52:51.798Z,24.60
2023-05-14T16:55:18.765Z,24.00
2023-05-14T16:57:45.980Z,23.60
2023-05-14T17:00:13.473Z,23.10
2023-05-14T17:02:40.411Z,22.80
2023-05-14T17:05:08.043Z,22.60
2023-05-14T17:07:34.949Z,22.20
2023-05-14T17:10:01.990Z,21.80
2023-05-14T17:12:28.882Z,21.70
2023-05-14T17:14:55.727Z,21.50
2023-05-14T17:17:22.597Z,21.40
2023-05-14T17:19:49.459Z,21.20
2023-05-14T17:22:16.329Z,21.10
2023-05-14T17:24:43.196Z,20.90
2023-05-14T17:27:10.071Z,20.70
2023-05-14T17:29:36.894Z,21.50
2023-05-14T17:32:04.047Z,21.80
2023-05-14T17:34:30.910Z,21.60
2023-05-14T17:36:57.894Z,21.40
2023-05-14T17:39:24.828Z,22.20
2023-05-14T17:41:51.646Z,22.90
2023-05-14T17:44:18.646Z,23.00
2023-05-14T17:46:45.560Z,22.50
2023-05-14T17:49:12.421Z,22.50
2023-05-14T17:51:39.277Z,22.60
2023-05-14T17:54:06.213Z,22.70
2023-05-14T17:56:33.280Z,22.80
2023-05-14T17:59:00.546Z,23.10
2023-05-14T18:01:27.452Z,22.80
2023-05-14T18:03:54.394Z,22.60
2023-05-14T18:06:21.269Z,22.50
2023-05-14T18:08:48.146Z,22.00
2023-05-14T18:11:15.052Z,21.40
2023-05-14T18:13:41.903Z,21.10
2023-05-14T18:16:08.798Z,20.70
2023-05-14T18:18:35.749Z,20.40
2023-05-14T18:21:02.963Z,20.20
2023-05-14T18:23:29.897Z,19.90
2023-05-14T18:25:56.753Z,19.70
2023-05-14T18:28:23.735Z,19.50
2023-05-14T18:30:50.629Z,19.40
2023-05-14T18:33:17.561Z,19.20
2023-05-14T18:35:44.471Z,19.10
2023-05-14T18:38:11.311Z,19.00
2023-05-14T18:40:38.239Z,18.90
2023-05-14T18:43:05.167Z,18.80
2023-05-14T18:45:32.079Z,18.60
2023-05-14T18:47:59.061Z,18.50
2023-05-14T18:50:25.989Z,18.40
2023-05-14T18:52:52.853Z,18.30
2023-05-14T18:55:19.772Z,18.20
2023-05-14T18:57:46.736Z,18.00
2023-05-14T19:00:14.300Z,17.90
2023-05-14T19:02:41.701Z,17.90
2023-05-14T19:05:08.860Z,17.80
2023-05-14T19:07:37.453Z,17.80
2023-05-14T19:10:05.288Z,17.70
2023-05-14T19:12:32.163Z,17.60
2023-05-14T19:14:59.003Z,17.50
2023-05-14T19:17:26.011Z,17.60
2023-05-14T19:19:52.903Z,17.50
2023-05-14T19:22:19.762Z,17.40
2023-05-14T19:24:46.611Z,17.40
2023-05-14T19:27:13.445Z,17.40
2023-05-14T19:29:40.291Z,17.40
2023-05-14T19:32:07.594Z,17.30
2023-05-14T19:34:34.581Z,17.20
2023-05-14T19:37:01.589Z,17.20
2023-05-14T19:39:28.524Z,17.20
2023-05-14T19:41:55.410Z,17.10
2023-05-14T19:44:22.263Z,17.10
2023-05-14T19:46:49.227Z,17.00
2023-05-14T19:49:16.158Z,17.00
2023-05-14T19:51:43.046Z,17.00
2023-05-14T19:54:10.027Z,16.90
2023-05-14T19:56:36.901Z,16.90
2023-05-14T19:59:03.867Z,16.80
2023-05-14T20:01:30.762Z,16.80
2023-05-14T20:03:57.818Z,16.80
2023-05-14T20:06:24.705Z,16.70
2023-05-14T20:08:51.611Z,16.70
2023-05-14T20:11:18.497Z,16.70
2023-05-14T20:13:45.536Z,16.60
2023-05-14T20:16:12.460Z,16.60
2023-05-14T20:18:39.421Z,16.50
2023-05-14T20:21:06.255Z,16.60
2023-05-14T20:23:33.113Z,16.50
2023-05-14T20:25:59.990Z,16.50
2023-05-14T20:28:26.827Z,16.50
2023-05-14T20:30:53.790Z,16.40
2023-05-14T20:33:20.821Z,16.40
2023-05-14T20:35:47.991Z,16.40
2023-05-14T20:38:14.939Z,16.30
2023-05-14T20:40:41.813Z,16.30
2023-05-14T20:43:08.685Z,16.10
2023-05-14T20:45:35.554Z,16.10
2023-05-14T20:48:02.558Z,16.00
2023-05-14T20:50:29.410Z,15.90
2023-05-14T20:52:56.262Z,15.90
2023-05-14T20:55:23.531Z,15.80
2023-05-14T20:57:50.809Z,15.80
2023-05-14T21:00:18.019Z,15.80
2023-05-14T21:02:45.099Z,15.80
2023-05-14T21:05:12.140Z,15.70
2023-05-14T21:07:39.005Z,15.70
2023-05-14T21:10:07.091Z,15.70
2023-05-14T21:12:33.926Z,15.70
2023-05-14T21:15:00.818Z,15.70
2023-05-14T21:17:27.732Z,15.70
2023-05-14T21:19:54.606Z,15.70
2023-05-14T21:22:22.370Z,15.70
2023-05-14T21:24:50.557Z,15.60
2023-05-14T21:27:17.554Z,15.60
2023-05-14T21:29:44.528Z,15.50
2023-05-14T21:32:11.371Z,15.50
2023-05-14T21:34:38.232Z,15.50
2023-05-14T21:37:05.350Z,15.50
2023-05-14T21:39:32.200Z,15.40
2023-05-14T21:41:59.096Z,15.40
2023-05-14T21:44:25.914Z,15.30
2023-05-14T21:46:52.778Z,15.30
2023-05-14T21:49:19.620Z,15.20
2023-05-14T21:51:46.467Z,15.10
2023-05-14T21:54:13.364Z,15.00
2023-05-14T21:56:40.284Z,15.00
2023-05-14T21:59:07.135Z,15.00
2023-05-14T22:01:42.178Z,14.90
2023-05-14T22:04:17.940Z,14.80
2023-05-14T22:06:44.823Z,14.80
2023-05-14T22:09:11.658Z,14.80
2023-05-14T22:11:38.543Z,14.70
2023-05-14T22:14:05.408Z,14.70
2023-05-14T22:16:33.085Z,14.70
2023-05-14T22:19:00.061Z,14.70
2023-05-14T22:21:26.984Z,14.60
2023-05-14T22:23:53.880Z,14.70
2023-05-14T22:26:20.928Z,14.60
2023-05-14T22:28:47.922Z,14.60
2023-05-14T22:31:14.875Z,14.60
2023-05-14T22:33:41.771Z,14.60
2023-05-14T22:36:09.110Z,14.60
2023-05-14T22:38:35.997Z,14.60
2023-05-14T22:41:02.863Z,14.60
2023-05-14T22:43:29.735Z,14.60
2023-05-14T22:45:56.635Z,14.50
2023-05-14T22:48:24.034Z,14.50
2023-05-14T22:50:50.920Z,14.50
2023-05-14T22:53:17.874Z,14.40
2023-05-14T22:55:44.861Z,14.50
2023-05-14T22:58:11.721Z,14.40
2023-05-14T23:00:38.591Z,14.40
2023-05-14T23:03:05.518Z,14.40
2023-05-14T23:05:32.410Z,14.40
2023-05-14T23:07:59.367Z,14.40
2023-05-14T23:10:26.281Z,14.40
2023-05-14T23:12:53.203Z,14.40
2023-05-14T23:15:20.053Z,14.30
2023-05-14T23:17:47.144Z,14.30
2023-05-14T23:20:14.047Z,14.20
2023-05-14T23:22:41.093Z,14.20
2023-05-14T23:25:08.463Z,14.20
2023-05-14T23:27:35.641Z,14.10
2023-05-14T23:30:03.589Z,14.10
2023-05-14T23:32:30.539Z,14.10
2023-05-14T23:34:57.464Z,14.00
2023-05-14T23:37:24.568Z,13.90
2023-05-14T23:39:51.409Z,13.90
2023-05-14T23:42:18.268Z,13.80
2023-05-14T23:44:45.095Z,13.70
2023-05-14T23:47:12.193Z,13.70
2023-05-14T23:49:39.126Z,13.60
2023-05-14T23:52:06.242Z,13.50
2023-05-14T23:54:33.122Z,13.50
2023-05-14T23:57:00.036Z,13.40
2023-05-14T23:59:26.956Z,13.40
